Time;durP1;ratioP1;P1;durP2;ratioP2;P2;SDS_P1;SDS_P2;PMS_P1;PMS_P2;Temp;Humidity;BMP_temperature;BMP_pressure;BME280_temperature;BME280_humidity;BME280_pressure;Samples;Min_cycle;Max_cycle;Signal;HPM_P1;HPM_P2
2021/05/14 00:02:16;;;;;;;10.43;7.83;;;;;;;;;;746973;186;919286;-68
2021/05/14 00:04:42;;;;;;;10.77;7.00;;;;;;;;;;742448;186;942666;-68
2021/05/14 00:07:08;;;;;;;10.43;8.00;;;;;;;;;;743086;186;918592;-67
2021/05/14 00:09:33;;;;;;;8.17;6.70;;;;;;;;;;748009;186;918218;-69
2021/05/14 00:11:59;;;;;;;8.17;6.37;;;;;;;;;;747429;186;919405;-67
2021/05/14 00:14:25;;;;;;;7.97;6.00;;;;;;;;;;744214;185;981575;-68
2021/05/14 00:16:51;;;;;;;9.48;7.45;;;;;;;;;;749912;185;919201;-68
2021/05/14 00:19:17;;;;;;;9.37;6.57;;;;;;;;;;733128;186;2617268;-69
2021/05/14 00:21:43;;;;;;;10.77;6.80;;;;;;;;;;743586;186;918511;-68
2021/05/14 00:24:09;;;;;;;8.33;5.33;;;;;;;;;;747538;186;926164;-67
2021/05/14 00:26:35;;;;;;;11.17;6.10;;;;;;;;;;743737;186;919928;-68
2021/05/14 00:29:00;;;;;;;8.80;5.70;;;;;;;;;;742680;187;922580;-68
2021/05/14 00:31:26;;;;;;;8.33;5.10;;;;;;;;;;742300;187;920118;-67
2021/05/14 00:33:52;;;;;;;8.00;5.57;;;;;;;;;;746302;186;919853;-68
2021/05/14 00:36:18;;;;;;;9.10;6.45;;;;;;;;;;746359;186;921597;-69
2021/05/14 00:38:44;;;;;;;7.90;5.30;;;;;;;;;;741778;186;918558;-69
2021/05/14 00:41:10;;;;;;;9.53;6.10;;;;;;;;;;748916;186;919001;-68
2021/05/14 00:43:36;;;;;;;9.33;6.13;;;;;;;;;;743586;184;919924;-68
2021/05/14 00:46:02;;;;;;;7.83;6.20;;;;;;;;;;741817;186;917302;-68
2021/05/14 00:48:27;;;;;;;8.95;6.15;;;;;;;;;;748013;185;913783;-69
2021/05/14 00:50:53;;;;;;;10.67;7.10;;;;;;;;;;739346;185;1205790;-68
2021/05/14 00:53:19;;;;;;;10.07;6.83;;;;;;;;;;743372;185;915744;-69
2021/05/14 00:55:45;;;;;;;8.57;5.90;;;;;;;;;;740987;186;918640;-68
2021/05/14 00:58:11;;;;;;;10.43;7.23;;;;;;;;;;743614;185;920874;-68
2021/05/14 01:00:37;;;;;;;9.20;6.23;;;;;;;;;;744051;185;919232;-68
2021/05/14 01:03:02;;;;;;;9.30;6.40;;;;;;;;;;745477;183;919181;-68
2021/05/14 01:05:28;;;;;;;9.60;6.47;;;;;;;;;;744826;186;1428917;-68
2021/05/14 01:07:55;;;;;;;8.77;6.70;;;;;;;;;;743980;185;920441;-68
2021/05/14 01:10:20;;;;;;;7.63;5.63;;;;;;;;;;742785;186;919447;-69
2021/05/14 01:12:46;;;;;;;9.07;5.57;;;;;;;;;;749036;186;919462;-68
2021/05/14 01:15:12;;;;;;;7.90;5.63;;;;;;;;;;741886;184;918819;-69
2021/05/14 01:17:38;;;;;;;6.90;4.97;;;;;;;;;;745992;187;919403;-69
2021/05/14 01:20:04;;;;;;;5.20;4.18;;;;;;;;;;746718;186;919221;-68
2021/05/14 01:22:31;;;;;;;5.30;3.13;;;;;;;;;;750829;184;919264;-69
2021/05/14 01:24:56;;;;;;;6.63;3.23;;;;;;;;;;742621;188;918945;-70
2021/05/14 01:27:22;;;;;;;4.43;2.50;;;;;;;;;;740679;187;1343870;-70
2021/05/14 01:29:48;;;;;;;4.50;2.47;;;;;;;;;;748602;185;919021;-70
2021/05/14 01:32:14;;;;;;;3.53;2.17;;;;;;;;;;741244;185;919792;-70
2021/05/14 01:34:40;;;;;;;3.50;2.45;;;;;;;;;;743155;186;1021418;-70
2021/05/14 01:37:06;;;;;;;4.77;2.77;;;;;;;;;;747160;186;919069;-69
2021/05/14 01:39:31;;;;;;;4.90;3.30;;;;;;;;;;746340;185;919440;-70
2021/05/14 01:41:57;;;;;;;4.00;3.03;;;;;;;;;;742387;187;920922;-70
2021/05/14 01:44:23;;;;;;;6.27;3.03;;;;;;;;;;748232;185;917454;-70
2021/05/14 01:46:49;;;;;;;5.00;2.97;;;;;;;;;;739310;185;1242477;-70
2021/05/14 01:49:15;;;;;;;4.80;3.20;;;;;;;;;;745038;185;919515;-70
2021/05/14 01:51:41;;;;;;;4.50;2.80;;;;;;;;;;743716;185;918698;-69
2021/05/14 01:54:07;;;;;;;3.70;3.17;;;;;;;;;;748971;184;919263;-69
2021/05/14 01:56:32;;;;;;;3.45;2.22;;;;;;;;;;742419;185;915176;-69
2021/05/14 01:58:58;;;;;;;3.87;2.73;;;;;;;;;;741015;185;919551;-69
2021/05/14 02:01:25;;;;;;;4.50;2.30;;;;;;;;;;748240;187;919695;-70
2021/05/14 02:03:50;;;;;;;4.27;3.00;;;;;;;;;;741094;186;1379682;-69
2021/05/14 02:06:16;;;;;;;5.45;3.53;;;;;;;;;;743531;186;919579;-69
2021/05/14 02:08:41;;;;;;;5.10;3.33;;;;;;;;;;745705;184;919108;-69
2021/05/14 02:11:10;;;;;;;5.20;3.40;;;;;;;;;;746444;185;919974;-68
2021/05/14 02:13:35;;;;;;;6.10;3.67;;;;;;;;;;744960;185;919217;-69
2021/05/14 02:16:01;;;;;;;5.27;3.60;;;;;;;;;;745700;186;919920;-68
2021/05/14 02:18:26;;;;;;;5.60;3.50;;;;;;;;;;744859;186;919172;-69
2021/05/14 02:20:52;;;;;;;4.20;3.20;;;;;;;;;;745420;185;919359;-69
2021/05/14 02:23:18;;;;;;;4.93;3.40;;;;;;;;;;742800;185;918385;-68
2021/05/14 02:25:44;;;;;;;4.10;3.20;;;;;;;;;;750646;186;919416;-69
2021/05/14 02:28:10;;;;;;;7.03;3.23;;;;;;;;;;743730;185;918930;-69
2021/05/14 02:30:36;;;;;;;5.07;3.57;;;;;;;;;;743909;188;919717;-70
2021/05/14 02:33:05;;;;;;;4.90;3.73;;;;;;;;;;748799;185;918884;-69
2021/05/14 02:35:29;;;;;;;5.00;3.50;;;;;;;;;;743117;185;919661;-69
2021/05/14 02:37:55;;;;;;;5.07;3.20;;;;;;;;;;744438;185;918475;-71
2021/05/14 02:40:21;;;;;;;5.33;3.37;;;;;;;;;;740391;186;933273;-68
2021/05/14 02:42:47;;;;;;;6.50;4.30;;;;;;;;;;749317;186;919096;-69
2021/05/14 02:45:13;;;;;;;5.60;3.10;;;;;;;;;;741443;186;919404;-69
2021/05/14 02:47:41;;;;;;;4.20;2.60;;;;;;;;;;744520;187;919720;-69
2021/05/14 02:50:06;;;;;;;5.80;4.03;;;;;;;;;;746626;185;918710;-69
2021/05/14 02:52:31;;;;;;;6.13;2.83;;;;;;;;;;745500;186;919617;-69
2021/05/14 02:54:57;;;;;;;5.20;2.97;;;;;;;;;;740753;185;1285359;-69
2021/05/14 02:57:23;;;;;;;6.33;3.43;;;;;;;;;;750169;186;906343;-69
2021/05/14 02:59:49;;;;;;;4.53;2.47;;;;;;;;;;742934;185;919217;-69
2021/05/14 03:02:15;;;;;;;4.07;2.30;;;;;;;;;;741804;187;919095;-69
2021/05/14 03:04:42;;;;;;;9.40;2.57;;;;;;;;;;744273;186;916543;-68
2021/05/14 03:07:08;;;;;;;4.50;2.80;;;;;;;;;;751464;184;918634;-69
2021/05/14 03:09:34;;;;;;;4.37;2.40;;;;;;;;;;740892;185;919228;-70
2021/05/14 03:12:00;;;;;;;4.00;2.33;;;;;;;;;;742683;185;919749;-69
2021/05/14 03:14:25;;;;;;;5.00;3.37;;;;;;;;;;750169;185;919333;-69
2021/05/14 03:16:51;;;;;;;4.60;2.97;;;;;;;;;;739832;187;1235184;-69
2021/05/14 03:19:17;;;;;;;4.10;3.10;;;;;;;;;;744576;187;919687;-69
2021/05/14 03:21:43;;;;;;;5.00;3.23;;;;;;;;;;749064;184;919047;-70
2021/05/14 03:24:09;;;;;;;6.10;3.17;;;;;;;;;;746565;186;918715;-69
2021/05/14 03:26:35;;;;;;;4.43;2.90;;;;;;;;;;743251;186;927736;-70
2021/05/14 03:29:01;;;;;;;4.05;3.10;;;;;;;;;;748315;186;918841;-69
2021/05/14 03:31:27;;;;;;;4.10;2.63;;;;;;;;;;751982;184;919450;-70
2021/05/14 03:33:53;;;;;;;9.90;2.97;;;;;;;;;;745896;186;920869;-70
2021/05/14 03:36:21;;;;;;;3.93;3.17;;;;;;;;;;742107;184;919310;-70
2021/05/14 03:38:45;;;;;;;6.33;4.63;;;;;;;;;;750502;185;919505;-70
2021/05/14 03:41:19;;;;;;;7.83;4.70;;;;;;;;;;742944;185;942409;-70
2021/05/14 03:43:42;;;;;;;7.77;4.23;;;;;;;;;;746314;185;919623;-70
2021/05/14 03:46:08;;;;;;;5.37;4.20;;;;;;;;;;746913;186;919480;-70
2021/05/14 03:48:34;;;;;;;7.17;4.70;;;;;;;;;;750630;184;919363;-70
2021/05/14 03:51:00;;;;;;;7.53;4.70;;;;;;;;;;745512;186;918845;-70
2021/05/14 03:53:26;;;;;;;8.18;4.53;;;;;;;;;;742362;184;918583;-70
2021/05/14 03:55:52;;;;;;;6.80;3.85;;;;;;;;;;749130;185;921831;-69
2021/05/14 03:58:18;;;;;;;6.80;3.70;;;;;;;;;;743160;185;917787;-70
2021/05/14 04:00:44;;;;;;;6.07;4.20;;;;;;;;;;743918;186;919504;-70
2021/05/14 04:03:11;;;;;;;6.13;4.43;;;;;;;;;;745113;184;1235606;-70
2021/05/14 04:05:39;;;;;;;5.80;3.70;;;;;;;;;;746013;184;919266;-70
2021/05/14 04:08:01;;;;;;;7.70;4.10;;;;;;;;;;743732;186;918962;-69
2021/05/14 04:15:55;;;;;;;9.00;4.20;;;;;;;;;;747626;186;632830;-70
2021/05/14 04:18:21;;;;;;;6.10;4.50;;;;;;;;;;744666;185;632518;-70
2021/05/14 04:20:47;;;;;;;10.38;6.70;;;;;;;;;;743304;186;918074;-70
2021/05/14 04:23:12;;;;;;;17.13;9.17;;;;;;;;;;740507;186;1023197;-70
2021/05/14 04:25:39;;;;;;;13.33;8.50;;;;;;;;;;752619;186;623753;-71
2021/05/14 04:28:04;;;;;;;11.50;8.67;;;;;;;;;;745291;185;918746;-71
2021/05/14 04:30:31;;;;;;;14.02;8.85;;;;;;;;;;743345;187;991233;-71
2021/05/14 04:32:58;;;;;;;10.57;7.57;;;;;;;;;;748035;183;919614;-69
2021/05/14 04:35:22;;;;;;;6.93;4.30;;;;;;;;;;751817;184;618821;-70
2021/05/14 04:37:49;;;;;;;4.43;2.50;;;;;;;;;;750809;184;622761;-70
2021/05/14 04:40:15;;;;;;;5.22;2.78;;;;;;;;;;747512;186;916020;-69
2021/05/14 04:42:41;;;;;;;4.60;2.93;;;;;;;;;;744985;186;1018051;-70
2021/05/14 04:45:08;;;;;;;4.07;3.40;;;;;;;;;;744949;186;915559;-70
2021/05/14 04:47:35;;;;;;;13.00;6.87;;;;;;;;;;749819;185;630248;-70
2021/05/14 04:49:59;;;;;;;9.97;4.37;;;;;;;;;;750561;186;719358;-70
2021/05/14 04:52:26;;;;;;;4.07;2.73;;;;;;;;;;745965;186;918887;-70
2021/05/14 04:54:51;;;;;;;5.30;3.90;;;;;;;;;;746053;186;919397;-70
2021/05/14 04:57:17;;;;;;;4.60;3.03;;;;;;;;;;748310;186;918736;-69
2021/05/14 04:59:43;;;;;;;4.97;2.90;;;;;;;;;;743064;185;918781;-70
2021/05/14 05:02:08;;;;;;;7.43;3.53;;;;;;;;;;748379;186;624562;-70
2021/05/14 05:04:36;;;;;;;4.33;3.43;;;;;;;;;;749829;186;645632;-70
2021/05/14 05:07:01;;;;;;;3.93;2.43;;;;;;;;;;752069;186;624140;-70
2021/05/14 05:09:27;;;;;;;3.40;2.53;;;;;;;;;;744374;185;926507;-70
2021/05/14 05:11:53;;;;;;;4.20;3.20;;;;;;;;;;747792;187;627811;-69
2021/05/14 05:14:20;;;;;;;3.77;3.03;;;;;;;;;;751986;187;616512;-70
2021/05/14 05:16:46;;;;;;;4.20;3.07;;;;;;;;;;744396;186;919241;-70
2021/05/14 05:19:12;;;;;;;4.43;2.77;;;;;;;;;;745022;187;920261;-70
2021/05/14 05:21:38;;;;;;;4.70;2.37;;;;;;;;;;746595;185;910154;-70
2021/05/14 05:24:04;;;;;;;3.57;2.53;;;;;;;;;;743210;186;918747;-70
2021/05/14 05:26:30;;;;;;;5.63;2.97;;;;;;;;;;740639;187;919674;-70
2021/05/14 05:28:56;;;;;;;4.12;3.12;;;;;;;;;;747512;187;919917;-69
2021/05/14 05:31:22;;;;;;;5.60;2.60;;;;;;;;;;740198;184;1228501;-69
2021/05/14 05:33:47;;;;;;;4.07;2.90;;;;;;;;;;742713;186;918728;-70
2021/05/14 05:36:13;;;;;;;4.30;2.80;;;;;;;;;;743746;186;918855;-70
2021/05/14 05:38:39;;;;;;;3.90;3.00;;;;;;;;;;751687;185;916604;-70
2021/05/14 05:41:05;;;;;;;5.03;3.43;;;;;;;;;;742756;186;919595;-70
2021/05/14 05:43:31;;;;;;;5.10;3.23;;;;;;;;;;744081;185;920169;-69
2021/05/14 05:45:57;;;;;;;4.80;2.87;;;;;;;;;;749548;186;921023;-69
2021/05/14 05:48:22;;;;;;;7.40;3.60;;;;;;;;;;746054;185;918426;-69
2021/05/14 05:50:48;;;;;;;4.40;2.90;;;;;;;;;;742522;185;960497;-70
2021/05/14 05:53:15;;;;;;;5.10;3.87;;;;;;;;;;749264;185;917317;-69
2021/05/14 05:55:40;;;;;;;6.40;4.30;;;;;;;;;;747573;186;914918;-69
2021/05/14 05:58:06;;;;;;;7.00;4.20;;;;;;;;;;743371;186;915267;-69
2021/05/14 06:00:32;;;;;;;9.93;5.10;;;;;;;;;;745923;186;916740;-69
2021/05/14 06:02:58;;;;;;;7.80;5.17;;;;;;;;;;745499;184;910106;-70
2021/05/14 06:05:24;;;;;;;9.20;4.00;;;;;;;;;;743562;186;915650;-70
2021/05/14 06:07:49;;;;;;;7.40;5.83;;;;;;;;;;741166;185;916241;-70
2021/05/14 06:10:15;;;;;;;10.70;6.33;;;;;;;;;;749418;186;916218;-70
2021/05/14 06:12:41;;;;;;;8.33;5.87;;;;;;;;;;743536;185;919800;-69
2021/05/14 06:15:07;;;;;;;10.40;6.50;;;;;;;;;;742216;187;1529651;-70
2021/05/14 06:17:38;;;;;;;10.30;6.40;;;;;;;;;;746309;185;1120373;-70
2021/05/14 06:20:01;;;;;;;13.93;7.57;;;;;;;;;;744653;185;918893;-70
2021/05/14 06:22:25;;;;;;;10.27;8.90;;;;;;;;;;743747;186;918846;-70
2021/05/14 06:24:51;;;;;;;10.67;7.33;;;;;;;;;;748871;184;918829;-70
2021/05/14 06:27:16;;;;;;;13.53;8.00;;;;;;;;;;741081;186;918921;-70
2021/05/14 06:29:45;;;;;;;9.73;7.83;;;;;;;;;;744776;187;859244;-70
2021/05/14 06:32:08;;;;;;;11.07;8.30;;;;;;;;;;744366;186;916276;-70
2021/05/14 06:34:34;;;;;;;12.30;9.40;;;;;;;;;;748092;184;906628;-70
2021/05/14 06:37:00;;;;;;;11.53;8.40;;;;;;;;;;744450;187;919430;-71
2021/05/14 06:39:26;;;;;;;13.07;10.07;;;;;;;;;;736056;185;2227597;-71
2021/05/14 06:41:51;;;;;;;11.57;9.77;;;;;;;;;;749149;186;919421;-71
2021/05/14 06:44:17;;;;;;;18.52;9.20;;;;;;;;;;742749;185;919354;-72
2021/05/14 06:46:44;;;;;;;13.83;10.37;;;;;;;;;;744193;186;919661;-70
2021/05/14 06:49:09;;;;;;;12.50;9.43;;;;;;;;;;750555;185;907179;-70
2021/05/14 06:51:35;;;;;;;15.50;11.27;;;;;;;;;;741359;185;1399364;-70
2021/05/14 06:54:01;;;;;;;10.90;9.77;;;;;;;;;;745692;185;633287;-70
2021/05/14 06:56:27;;;;;;;13.50;11.60;;;;;;;;;;753383;185;918659;-69
2021/05/14 06:58:54;;;;;;;13.77;11.43;;;;;;;;;;750760;184;623586;-70
2021/05/14 07:01:20;;;;;;;15.00;11.90;;;;;;;;;;747415;186;919089;-70
2021/05/14 07:03:49;;;;;;;12.50;11.20;;;;;;;;;;741940;185;919075;-69
2021/05/14 07:06:15;;;;;;;15.07;11.07;;;;;;;;;;749089;186;918076;-70
2021/05/14 07:08:44;;;;;;;15.90;11.60;;;;;;;;;;743313;186;919151;-70
2021/05/14 07:11:10;;;;;;;11.65;10.30;;;;;;;;;;744918;186;918702;-70
2021/05/14 07:13:36;;;;;;;13.73;10.37;;;;;;;;;;746988;185;918458;-70
2021/05/14 07:16:02;;;;;;;11.73;10.17;;;;;;;;;;745464;185;919378;-70
2021/05/14 07:18:27;;;;;;;14.30;11.03;;;;;;;;;;745907;185;919470;-69
2021/05/14 07:20:53;;;;;;;12.52;10.27;;;;;;;;;;743119;185;917494;-70
2021/05/14 07:23:19;;;;;;;12.30;9.70;;;;;;;;;;748241;185;919867;-71
2021/05/14 07:25:45;;;;;;;13.10;11.00;;;;;;;;;;740720;187;1192840;-69
2021/05/14 07:28:11;;;;;;;13.62;10.45;;;;;;;;;;740425;186;1612040;-71
2021/05/14 07:30:37;;;;;;;13.00;9.93;;;;;;;;;;747393;185;919392;-69
2021/05/14 07:33:03;;;;;;;11.50;9.70;;;;;;;;;;744480;187;919622;-70
2021/05/14 07:35:28;;;;;;;17.73;10.47;;;;;;;;;;745402;186;918487;-71
2021/05/14 07:37:54;;;;;;;13.13;9.43;;;;;;;;;;748924;185;870046;-70
2021/05/14 07:40:20;;;;;;;13.47;9.43;;;;;;;;;;742935;184;918449;-70
2021/05/14 07:42:46;;;;;;;15.40;11.20;;;;;;;;;;743438;185;919260;-70
2021/05/14 07:45:13;;;;;;;14.03;9.03;;;;;;;;;;743370;185;875352;-70
2021/05/14 07:47:39;;;;;;;12.27;9.40;;;;;;;;;;746556;185;919334;-70
2021/05/14 07:50:05;;;;;;;11.07;8.73;;;;;;;;;;744077;186;932639;-70
2021/05/14 07:52:31;;;;;;;9.68;8.43;;;;;;;;;;743890;186;918922;-69
2021/05/14 07:54:57;;;;;;;11.00;8.77;;;;;;;;;;752173;185;630551;-68
2021/05/14 07:57:23;;;;;;;9.57;7.70;;;;;;;;;;743593;186;919500;-69
2021/05/14 07:59:49;;;;;;;9.23;7.63;;;;;;;;;;744402;187;919572;-69
2021/05/14 08:02:14;;;;;;;9.90;6.70;;;;;;;;;;745826;186;937979;-69
2021/05/14 08:04:40;;;;;;;7.40;6.40;;;;;;;;;;742560;187;917440;-69
2021/05/14 08:07:06;;;;;;;10.98;7.55;;;;;;;;;;712026;185;4761692;-70
2021/05/14 08:09:32;;;;;;;8.00;6.63;;;;;;;;;;739291;188;919614;-69
2021/05/14 08:11:58;;;;;;;9.23;6.93;;;;;;;;;;736814;187;950505;-70
2021/05/14 08:14:24;;;;;;;11.93;7.63;;;;;;;;;;740637;188;922716;-70
2021/05/14 08:16:51;;;;;;;9.73;7.13;;;;;;;;;;739832;186;919289;-70
2021/05/14 08:19:15;;;;;;;8.00;7.20;;;;;;;;;;725452;194;627390;-70
2021/05/14 08:21:44;;;;;;;8.03;7.10;;;;;;;;;;736240;187;919540;-70
2021/05/14 08:24:10;;;;;;;8.77;7.17;;;;;;;;;;719209;194;919202;-69
2021/05/14 08:26:36;;;;;;;9.10;7.30;;;;;;;;;;748788;185;919486;-70
2021/05/14 08:29:02;;;;;;;8.05;6.75;;;;;;;;;;743827;186;919042;-70
2021/05/14 08:31:27;;;;;;;7.53;6.50;;;;;;;;;;744739;187;919442;-69
2021/05/14 08:33:53;;;;;;;9.73;6.83;;;;;;;;;;737020;186;1848929;-68
2021/05/14 08:36:19;;;;;;;7.20;6.20;;;;;;;;;;749843;186;919603;-69
2021/05/14 08:38:45;;;;;;;7.83;6.53;;;;;;;;;;743275;185;919000;-69
2021/05/14 08:41:11;;;;;;;8.00;7.10;;;;;;;;;;744259;186;919912;-69
2021/05/14 08:43:37;;;;;;;8.00;6.77;;;;;;;;;;747072;185;919430;-70
2021/05/14 08:46:02;;;;;;;9.90;7.80;;;;;;;;;;743203;187;919306;-69
2021/05/14 08:48:28;;;;;;;9.57;8.20;;;;;;;;;;742784;186;919320;-70
2021/05/14 08:50:54;;;;;;;11.63;9.13;;;;;;;;;;749665;185;919038;-69
2021/05/14 08:53:20;;;;;;;9.17;8.20;;;;;;;;;;743663;185;1024583;-69
2021/05/14 08:55:46;;;;;;;9.63;8.57;;;;;;;;;;745514;185;918909;-69
2021/05/14 08:58:12;;;;;;;11.20;8.65;;;;;;;;;;746280;184;918528;-68
2021/05/14 09:00:39;;;;;;;10.40;8.67;;;;;;;;;;740589;187;920229;-69
2021/05/14 09:03:10;;;;;;;11.17;9.00;;;;;;;;;;743378;185;920652;-69
2021/05/14 09:05:36;;;;;;;12.32;9.48;;;;;;;;;;742150;186;1021231;-70
2021/05/14 09:08:02;;;;;;;14.00;11.67;;;;;;;;;;752418;185;617754;-69
2021/05/14 09:10:28;;;;;;;16.13;11.27;;;;;;;;;;748169;186;626079;-68
2021/05/14 09:12:54;;;;;;;13.07;11.70;;;;;;;;;;749537;185;623687;-69
2021/05/14 09:15:21;;;;;;;15.10;11.05;;;;;;;;;;745098;185;1067173;-70
2021/05/14 09:17:53;;;;;;;12.50;11.20;;;;;;;;;;742241;186;918791;-69
2021/05/14 09:20:24;;;;;;;14.00;11.77;;;;;;;;;;745975;184;817068;-69
2021/05/14 09:22:50;;;;;;;11.20;9.43;;;;;;;;;;744985;184;921246;-69
2021/05/14 09:25:16;;;;;;;11.75;10.45;;;;;;;;;;741916;186;920006;-68
2021/05/14 09:27:42;;;;;;;14.20;12.30;;;;;;;;;;752405;185;919598;-69
2021/05/14 09:30:09;;;;;;;15.43;13.87;;;;;;;;;;747634;185;628178;-69
2021/05/14 09:32:35;;;;;;;14.20;12.20;;;;;;;;;;749507;186;631841;-69
2021/05/14 09:35:01;;;;;;;14.10;12.63;;;;;;;;;;750717;185;617524;-68
2021/05/14 09:37:28;;;;;;;17.80;12.90;;;;;;;;;;748625;185;615898;-70
2021/05/14 09:39:53;;;;;;;18.53;12.20;;;;;;;;;;742732;185;919280;-69
2021/05/14 09:42:24;;;;;;;15.40;11.47;;;;;;;;;;748508;186;919284;-68
2021/05/14 09:44:51;;;;;;;14.80;10.63;;;;;;;;;;745111;186;918735;-68
2021/05/14 09:47:16;;;;;;;14.33;12.80;;;;;;;;;;744655;188;919321;-69
2021/05/14 09:49:42;;;;;;;12.25;10.73;;;;;;;;;;742240;186;1141116;-69
2021/05/14 09:52:09;;;;;;;12.20;10.00;;;;;;;;;;746456;185;918624;-69
2021/05/14 09:54:36;;;;;;;13.47;10.37;;;;;;;;;;745708;186;920104;-68
2021/05/14 09:57:32;;;;;;;13.40;12.00;;;;;;;;;;742172;186;916830;-69
2021/05/14 09:59:54;;;;;;;13.63;11.17;;;;;;;;;;743761;182;919356;-68
2021/05/14 10:02:21;;;;;;;14.13;10.43;;;;;;;;;;739695;185;1334979;-69
2021/05/14 10:04:47;;;;;;;16.43;11.77;;;;;;;;;;748106;185;919416;-69
2021/05/14 10:07:13;;;;;;;12.13;10.70;;;;;;;;;;743064;186;919155;-69
2021/05/14 10:09:39;;;;;;;13.90;12.50;;;;;;;;;;744222;185;919354;-69
2021/05/14 10:12:06;;;;;;;12.40;10.80;;;;;;;;;;745503;186;919836;-69
2021/05/14 10:14:31;;;;;;;14.13;10.87;;;;;;;;;;744545;187;921306;-68
2021/05/14 10:16:57;;;;;;;11.77;10.50;;;;;;;;;;741542;186;919319;-69
2021/05/14 10:19:23;;;;;;;13.43;11.33;;;;;;;;;;745170;183;917063;-67
2021/05/14 10:21:49;;;;;;;13.80;11.83;;;;;;;;;;750015;186;919600;-69
2021/05/14 10:24:15;;;;;;;12.40;10.67;;;;;;;;;;746970;186;919189;-69
2021/05/14 10:26:42;;;;;;;11.63;10.00;;;;;;;;;;741170;186;1008029;-68
2021/05/14 10:29:11;;;;;;;11.50;9.40;;;;;;;;;;749837;187;918041;-69
2021/05/14 10:31:42;;;;;;;12.30;9.73;;;;;;;;;;748211;185;915971;-70
2021/05/14 10:34:09;;;;;;;10.90;9.60;;;;;;;;;;749003;183;918192;-69
2021/05/14 10:36:40;;;;;;;12.00;9.97;;;;;;;;;;744797;186;919875;-69
2021/05/14 10:39:07;;;;;;;10.87;9.60;;;;;;;;;;745093;185;952337;-70
2021/05/14 10:41:33;;;;;;;13.10;10.57;;;;;;;;;;745019;185;920252;-68
2021/05/14 10:44:00;;;;;;;12.73;11.13;;;;;;;;;;740989;185;1153145;-69
2021/05/14 10:46:27;;;;;;;12.10;10.87;;;;;;;;;;748877;186;926807;-69
2021/05/14 10:48:52;;;;;;;13.60;11.17;;;;;;;;;;747861;186;909221;-70
2021/05/14 10:51:18;;;;;;;11.77;10.20;;;;;;;;;;744545;187;914086;-70
2021/05/14 10:53:45;;;;;;;12.30;11.00;;;;;;;;;;742153;186;919249;-70
2021/05/14 10:56:26;;;;;;;12.63;10.10;;;;;;;;;;749074;186;913986;-70
2021/05/14 10:58:52;;;;;;;12.55;10.95;;;;;;;;;;746689;185;902346;-70
2021/05/14 11:01:24;;;;;;;14.23;11.80;;;;;;;;;;744089;185;1011070;-69
2021/05/14 11:03:50;;;;;;;11.73;10.10;;;;;;;;;;719653;185;4913080;-69
2021/05/14 11:06:17;;;;;;;16.60;12.10;;;;;;;;;;747820;187;929329;-70
2021/05/14 11:08:45;;;;;;;15.10;11.37;;;;;;;;;;746779;185;661588;-70
2021/05/14 11:11:11;;;;;;;12.77;10.67;;;;;;;;;;747345;187;919459;-70
2021/05/14 11:13:36;;;;;;;13.97;12.50;;;;;;;;;;746149;186;633779;-69
2021/05/14 11:16:07;;;;;;;12.93;11.27;;;;;;;;;;751456;185;619789;-67
2021/05/14 11:18:33;;;;;;;13.00;11.57;;;;;;;;;;746104;184;628528;-69
2021/05/14 11:20:59;;;;;;;14.37;11.13;;;;;;;;;;746541;186;620102;-70
2021/05/14 11:23:41;;;;;;;14.20;10.80;;;;;;;;;;749798;185;627445;-69
2021/05/14 11:26:06;;;;;;;16.17;11.67;;;;;;;;;;753437;185;625560;-69
2021/05/14 11:28:37;;;;;;;12.50;11.20;;;;;;;;;;745688;185;919539;-68
2021/05/14 11:31:03;;;;;;;12.17;10.80;;;;;;;;;;738869;186;1634294;-67
2021/05/14 11:33:29;;;;;;;14.20;11.40;;;;;;;;;;744442;187;918903;-69
2021/05/14 11:35:55;;;;;;;11.90;10.70;;;;;;;;;;748345;186;1019490;-70
2021/05/14 11:38:21;;;;;;;12.10;10.48;;;;;;;;;;746340;185;919182;-69
2021/05/14 11:40:49;;;;;;;14.27;9.63;;;;;;;;;;742572;185;933498;-68
2021/05/14 11:43:13;;;;;;;11.90;9.73;;;;;;;;;;751211;185;918672;-68
2021/05/14 11:45:38;;;;;;;15.57;11.30;;;;;;;;;;742089;186;919069;-69
2021/05/14 11:48:10;;;;;;;12.10;10.47;;;;;;;;;;743818;186;919908;-71
2021/05/14 11:50:38;;;;;;;11.93;10.63;;;;;;;;;;744977;186;918901;-72
2021/05/14 11:53:04;;;;;;;15.43;11.13;;;;;;;;;;752144;185;619378;-71
2021/05/14 11:55:30;;;;;;;14.70;12.00;;;;;;;;;;745077;187;763363;-71
2021/05/14 11:57:56;;;;;;;13.53;12.03;;;;;;;;;;746843;184;918518;-70
2021/05/14 12:00:26;;;;;;;14.93;11.83;;;;;;;;;;747311;186;915233;-70
2021/05/14 12:02:52;;;;;;;13.70;12.07;;;;;;;;;;746679;185;918690;-72
2021/05/14 12:05:19;;;;;;;11.97;10.73;;;;;;;;;;742397;185;919475;-71
2021/05/14 12:07:44;;;;;;;16.73;10.30;;;;;;;;;;746078;185;919010;-71
2021/05/14 12:10:10;;;;;;;18.90;13.83;;;;;;;;;;749246;184;918474;-71
2021/05/14 12:12:37;;;;;;;17.70;11.37;;;;;;;;;;742121;186;919407;-70
2021/05/14 12:15:07;;;;;;;11.63;10.47;;;;;;;;;;742888;186;921702;-71
2021/05/14 12:17:33;;;;;;;9.60;8.17;;;;;;;;;;741469;186;1420532;-68
2021/05/14 12:19:59;;;;;;;16.73;11.83;;;;;;;;;;744783;185;919678;-70
2021/05/14 12:22:25;;;;;;;13.77;12.07;;;;;;;;;;746966;185;920225;-70
2021/05/14 12:24:50;;;;;;;13.23;11.30;;;;;;;;;;743292;187;914567;-70
2021/05/14 12:27:16;;;;;;;12.13;10.93;;;;;;;;;;746593;186;915455;-69
2021/05/14 12:29:42;;;;;;;14.25;12.30;;;;;;;;;;743253;185;920037;-69
2021/05/14 12:32:08;;;;;;;14.97;11.10;;;;;;;;;;745351;185;918667;-69
2021/05/14 12:34:34;;;;;;;11.50;10.17;;;;;;;;;;751351;185;622213;-69
2021/05/14 12:37:00;;;;;;;14.03;11.10;;;;;;;;;;748388;185;697847;-69
2021/05/14 12:39:25;;;;;;;13.00;11.10;;;;;;;;;;746874;185;919267;-69
2021/05/14 12:41:51;;;;;;;16.77;12.53;;;;;;;;;;745715;185;919504;-68
2021/05/14 12:44:17;;;;;;;15.03;11.43;;;;;;;;;;743868;187;919238;-69
2021/05/14 12:46:49;;;;;;;14.30;12.77;;;;;;;;;;743726;186;919945;-69
2021/05/14 12:49:15;;;;;;;14.30;12.53;;;;;;;;;;747871;185;639754;-68
2021/05/14 12:51:40;;;;;;;13.37;11.97;;;;;;;;;;750695;185;637189;-68
2021/05/14 12:54:06;;;;;;;14.43;12.97;;;;;;;;;;743467;184;918839;-68
2021/05/14 12:56:32;;;;;;;13.53;12.13;;;;;;;;;;746054;185;919563;-69
2021/05/14 12:58:59;;;;;;;16.03;12.67;;;;;;;;;;749372;186;919540;-70
2021/05/14 13:01:25;;;;;;;14.70;12.37;;;;;;;;;;747114;186;919213;-69
2021/05/14 13:03:51;;;;;;;19.37;12.40;;;;;;;;;;746196;185;918939;-69
2021/05/14 13:06:16;;;;;;;13.70;12.17;;;;;;;;;;747153;186;918496;-71
2021/05/14 13:08:42;;;;;;;13.97;12.50;;;;;;;;;;744068;184;913241;-68
2021/05/14 13:11:12;;;;;;;13.07;11.40;;;;;;;;;;745423;186;920970;-70
2021/05/14 13:13:35;;;;;;;13.70;12.20;;;;;;;;;;744258;185;918787;-68
2021/05/14 13:16:00;;;;;;;11.43;10.27;;;;;;;;;;752965;185;619067;-68
2021/05/14 13:18:26;;;;;;;14.27;12.20;;;;;;;;;;741581;185;919499;-68
2021/05/14 13:20:52;;;;;;;12.40;11.10;;;;;;;;;;744815;187;919330;-68
2021/05/14 13:23:21;;;;;;;12.90;11.50;;;;;;;;;;747162;186;1021150;-69
2021/05/14 13:25:49;;;;;;;14.00;11.90;;;;;;;;;;747021;186;918566;-69
2021/05/14 13:28:12;;;;;;;14.23;12.67;;;;;;;;;;747656;184;919529;-69
2021/05/14 13:30:40;;;;;;;16.43;12.30;;;;;;;;;;740693;185;1336991;-69
2021/05/14 13:33:06;;;;;;;13.87;12.40;;;;;;;;;;750273;187;920064;-69
2021/05/14 13:35:32;;;;;;;15.67;13.33;;;;;;;;;;741060;187;918889;-67
2021/05/14 13:37:57;;;;;;;17.45;12.40;;;;;;;;;;742351;185;919371;-68
2021/05/14 13:40:23;;;;;;;14.70;12.70;;;;;;;;;;745838;187;918526;-67
2021/05/14 13:42:49;;;;;;;17.67;15.90;;;;;;;;;;743133;187;919584;-68
2021/05/14 13:45:15;;;;;;;13.90;12.40;;;;;;;;;;742357;185;919066;-69
2021/05/14 13:47:41;;;;;;;14.17;12.40;;;;;;;;;;750568;185;918827;-69
2021/05/14 13:50:07;;;;;;;15.67;12.87;;;;;;;;;;746972;185;919270;-69
2021/05/14 13:52:33;;;;;;;18.30;13.97;;;;;;;;;;743004;185;1020827;-68
2021/05/14 13:54:59;;;;;;;15.23;13.07;;;;;;;;;;741031;187;919476;-68
2021/05/14 13:57:25;;;;;;;16.80;13.67;;;;;;;;;;747826;186;919270;-68
2021/05/14 13:59:51;;;;;;;14.63;13.00;;;;;;;;;;744465;185;919446;-68
2021/05/14 14:02:17;;;;;;;14.50;12.83;;;;;;;;;;744210;187;919482;-69
2021/05/14 14:04:42;;;;;;;14.75;12.23;;;;;;;;;;748014;185;928517;-68
2021/05/14 14:07:08;;;;;;;15.00;13.17;;;;;;;;;;742555;185;1389533;-68
2021/05/14 14:09:34;;;;;;;15.27;13.67;;;;;;;;;;748968;183;920033;-68
2021/05/14 14:12:01;;;;;;;14.80;12.37;;;;;;;;;;749968;186;816528;-68
2021/05/14 14:14:27;;;;;;;16.60;12.50;;;;;;;;;;745829;187;919044;-68
2021/05/14 14:16:53;;;;;;;16.53;12.30;;;;;;;;;;745729;184;919741;-68